EZY12BU EGJJ-EGGW
Flight info
| Callsign | EZY12BU |
|---|---|
| Flight time | 0h 41m |
| Altitude | 27000 |
| Route | ORIST L982 TELTU |
| Aircraft | A319/M-SDE3FGHIRWY/LB1 |
Departure
| Time | 2026-05-04 17:46 |
|---|---|
| Airport | Jersey Airport (EGJJ) |
Arrival
| Time | 2026-05-04 18:27 |
|---|---|
| Airport | London Luton Airport (EGGW) |
| Time | Latitude | Longitude | Altitude | Speed | Heading |
|---|---|---|---|---|---|
| 2026-05-04 17:21 | 49.20496 | -2.19676 | 280 ft | 0 kts | 3° |
| 2026-05-04 17:39 | 49.20472 | -2.19676 | 280 ft | 4 kts | 350° |
| 2026-05-04 17:39 | 49.20448 | -2.19661 | 280 ft | 4 kts | 316° |
| 2026-05-04 17:39 | 49.20439 | -2.19639 | 280 ft | 0 kts | 285° |
| 2026-05-04 17:42 | 49.20443 | -2.19681 | 280 ft | 14 kts | 271° |
| 2026-05-04 17:42 | 49.20435 | -2.19865 | 280 ft | 19 kts | 279° |
| 2026-05-04 17:42 | 49.20518 | -2.20007 | 280 ft | 19 kts | 292° |
| 2026-05-04 17:43 | 49.20560 | -2.20204 | 282 ft | 20 kts | 287° |
| 2026-05-04 17:43 | 49.20604 | -2.20421 | 280 ft | 23 kts | 286° |
| 2026-05-04 17:43 | 49.20618 | -2.20505 | 280 ft | 0 kts | 282° |
| 2026-05-04 17:44 | 49.20620 | -2.20515 | 280 ft | 5 kts | 280° |
| 2026-05-04 17:44 | 49.20628 | -2.20615 | 281 ft | 12 kts | 274° |
| 2026-05-04 17:44 | 49.20684 | -2.20683 | 284 ft | 13 kts | 40° |
| 2026-05-04 17:44 | 49.20713 | -2.20567 | 280 ft | 1 kts | 81° |
| 2026-05-04 17:45 | 49.20714 | -2.20565 | 280 ft | 0 kts | 81° |
| 2026-05-04 17:45 | 49.20723 | -2.20458 | 284 ft | 37 kts | 83° |
| 2026-05-04 17:45 | 49.20784 | -2.19697 | 283 ft | 104 kts | 82° |
| 2026-05-04 17:46 | 49.20907 | -2.18367 | 406 ft | 136 kts | 81° |
| 2026-05-04 17:46 | 49.21036 | -2.17000 | 986 ft | 125 kts | 77° |
| 2026-05-04 17:46 | 49.21189 | -2.15695 | 1438 ft | 128 kts | 77° |
| 2026-05-04 17:46 | 49.21327 | -2.14313 | 1772 ft | 137 kts | 78° |
| 2026-05-04 17:47 | 49.21469 | -2.12903 | 2315 ft | 132 kts | 78° |
| 2026-05-04 17:47 | 49.21611 | -2.11519 | 2748 ft | 136 kts | 82° |
| 2026-05-04 17:47 | 49.21698 | -2.09980 | 3085 ft | 154 kts | 84° |
| 2026-05-04 17:47 | 49.21783 | -2.08252 | 3540 ft | 172 kts | 83° |
| 2026-05-04 17:48 | 49.22120 | -2.06408 | 4060 ft | 190 kts | 57° |
| 2026-05-04 17:48 | 49.23099 | -2.04934 | 4550 ft | 212 kts | 26° |
| 2026-05-04 17:48 | 49.24574 | -2.04451 | 5262 ft | 223 kts | 359° |
| 2026-05-04 17:48 | 49.26120 | -2.04423 | 6243 ft | 228 kts | 2° |
| 2026-05-04 17:49 | 49.27738 | -2.03816 | 6874 ft | 249 kts | 21° |
| 2026-05-04 17:49 | 49.29369 | -2.02717 | 7396 ft | 272 kts | 25° |
| 2026-05-04 17:49 | 49.31113 | -2.01449 | 8218 ft | 280 kts | 25° |
| 2026-05-04 17:49 | 49.32899 | -2.00154 | 9174 ft | 286 kts | 25° |
| 2026-05-04 17:50 | 49.34720 | -1.98854 | 10110 ft | 291 kts | 25° |
| 2026-05-04 17:50 | 49.36613 | -1.97515 | 10736 ft | 312 kts | 25° |
| 2026-05-04 17:50 | 49.38665 | -1.96082 | 11148 ft | 335 kts | 25° |
| 2026-05-04 17:50 | 49.40836 | -1.94575 | 11791 ft | 346 kts | 25° |
| 2026-05-04 17:51 | 49.43019 | -1.93056 | 12632 ft | 351 kts | 25° |
| 2026-05-04 17:51 | 49.45252 | -1.91498 | 13509 ft | 354 kts | 25° |
| 2026-05-04 17:51 | 49.47507 | -1.89921 | 14371 ft | 359 kts | 25° |
| 2026-05-04 17:51 | 49.49794 | -1.88322 | 15187 ft | 363 kts | 25° |
| 2026-05-04 17:52 | 49.52098 | -1.86707 | 16026 ft | 366 kts | 25° |
| 2026-05-04 17:52 | 49.54435 | -1.85070 | 16746 ft | 371 kts | 25° |
| 2026-05-04 17:52 | 49.56792 | -1.83423 | 17513 ft | 374 kts | 25° |
| 2026-05-04 17:52 | 49.59164 | -1.81766 | 18156 ft | 376 kts | 25° |
| 2026-05-04 17:53 | 49.61545 | -1.80060 | 18885 ft | 386 kts | 25° |
| 2026-05-04 17:53 | 49.64026 | -1.78335 | 19750 ft | 386 kts | 25° |
| 2026-05-04 17:53 | 49.66443 | -1.76610 | 20103 ft | 394 kts | 25° |
| 2026-05-04 17:53 | 49.68967 | -1.74823 | 20630 ft | 402 kts | 25° |
| 2026-05-04 17:54 | 49.71532 | -1.73041 | 21227 ft | 408 kts | 25° |
| 2026-05-04 17:54 | 49.74136 | -1.71223 | 21797 ft | 414 kts | 25° |
| 2026-05-04 17:54 | 49.76770 | -1.69376 | 22331 ft | 418 kts | 26° |
| 2026-05-04 17:54 | 49.79443 | -1.67485 | 22836 ft | 425 kts | 26° |
| 2026-05-04 17:55 | 49.82148 | -1.65568 | 23395 ft | 430 kts | 26° |
| 2026-05-04 17:55 | 49.84885 | -1.63615 | 23915 ft | 436 kts | 26° |
| 2026-05-04 17:55 | 49.87614 | -1.61670 | 24458 ft | 441 kts | 26° |
| 2026-05-04 17:55 | 49.90418 | -1.59674 | 24951 ft | 444 kts | 26° |
| 2026-05-04 17:56 | 49.93229 | -1.57666 | 25485 ft | 447 kts | 26° |
| 2026-05-04 17:56 | 49.96070 | -1.55634 | 25938 ft | 451 kts | 26° |
| 2026-05-04 17:56 | 49.98924 | -1.53591 | 26388 ft | 454 kts | 26° |
| 2026-05-04 17:56 | 50.01798 | -1.51524 | 26874 ft | 456 kts | 26° |
| 2026-05-04 17:57 | 50.04692 | -1.49442 | 27000 ft | 458 kts | 26° |
| 2026-05-04 17:57 | 50.07533 | -1.47403 | 26999 ft | 458 kts | 26° |
| 2026-05-04 17:57 | 50.10441 | -1.45324 | 26999 ft | 457 kts | 26° |
| 2026-05-04 17:57 | 50.13334 | -1.43244 | 26990 ft | 459 kts | 26° |
| 2026-05-04 17:58 | 50.16218 | -1.41162 | 26990 ft | 456 kts | 26° |
| 2026-05-04 17:58 | 50.19100 | -1.39079 | 26989 ft | 456 kts | 26° |
| 2026-05-04 17:58 | 50.21982 | -1.36997 | 26991 ft | 456 kts | 26° |
| 2026-05-04 17:58 | 50.24860 | -1.34905 | 26990 ft | 458 kts | 26° |
| 2026-05-04 17:59 | 50.27753 | -1.32807 | 26989 ft | 457 kts | 26° |
| 2026-05-04 17:59 | 50.30638 | -1.30718 | 26992 ft | 457 kts | 26° |
| 2026-05-04 17:59 | 50.36354 | -1.26562 | 26990 ft | 456 kts | 26° |
| 2026-05-04 18:00 | 50.39210 | -1.24446 | 26927 ft | 452 kts | 30° |
| 2026-05-04 18:00 | 50.41819 | -1.21773 | 26556 ft | 447 kts | 38° |
| 2026-05-04 18:00 | 50.44308 | -1.18872 | 25999 ft | 445 kts | 39° |
| 2026-05-04 18:00 | 50.46774 | -1.15973 | 25495 ft | 441 kts | 39° |
| 2026-05-04 18:01 | 50.49202 | -1.13101 | 24850 ft | 437 kts | 38° |
| 2026-05-04 18:01 | 50.51630 | -1.10257 | 24279 ft | 434 kts | 38° |
| 2026-05-04 18:01 | 50.53883 | -1.07620 | 23758 ft | 430 kts | 38° |
| 2026-05-04 18:02 | 50.58604 | -1.02091 | 22760 ft | 421 kts | 38° |
| 2026-05-04 18:02 | 50.60929 | -0.99355 | 22322 ft | 415 kts | 38° |
| 2026-05-04 18:02 | 50.63219 | -0.96647 | 21776 ft | 412 kts | 38° |
| 2026-05-04 18:02 | 50.65507 | -0.93949 | 21224 ft | 406 kts | 38° |
| 2026-05-04 18:03 | 50.67755 | -0.91299 | 20692 ft | 401 kts | 38° |
| 2026-05-04 18:03 | 50.69978 | -0.88670 | 20216 ft | 396 kts | 38° |
| 2026-05-04 18:03 | 50.72158 | -0.86090 | 19480 ft | 390 kts | 37° |
| 2026-05-04 18:03 | 50.74314 | -0.83543 | 19133 ft | 388 kts | 38° |
| 2026-05-04 18:04 | 50.76469 | -0.80995 | 19007 ft | 384 kts | 38° |
| 2026-05-04 18:04 | 50.78576 | -0.78492 | 18991 ft | 384 kts | 38° |
| 2026-05-04 18:04 | 50.83166 | -0.74145 | 18991 ft | 386 kts | 22° |
| 2026-05-04 18:05 | 50.85651 | -0.72569 | 18998 ft | 387 kts | 22° |
| 2026-05-04 18:05 | 50.88150 | -0.70971 | 18997 ft | 386 kts | 22° |
| 2026-05-04 18:05 | 50.90640 | -0.69370 | 18999 ft | 385 kts | 22° |
| 2026-05-04 18:05 | 50.93133 | -0.67758 | 18998 ft | 386 kts | 22° |
| 2026-05-04 18:06 | 50.98073 | -0.64560 | 18999 ft | 387 kts | 22° |
| 2026-05-04 18:06 | 51.00573 | -0.62939 | 19000 ft | 387 kts | 22° |
| 2026-05-04 18:06 | 51.03065 | -0.61324 | 19000 ft | 386 kts | 22° |
| 2026-05-04 18:07 | 51.04267 | -0.60546 | 18997 ft | 384 kts | 22° |
| 2026-05-04 18:07 | 51.06737 | -0.58945 | 19001 ft | 386 kts | 22° |
| 2026-05-04 18:07 | 51.09206 | -0.57350 | 19000 ft | 388 kts | 22° |
| 2026-05-04 18:07 | 51.11243 | -0.56025 | 19007 ft | 386 kts | 22° |
| 2026-05-04 18:08 | 51.13763 | -0.54381 | 19008 ft | 386 kts | 22° |
| 2026-05-04 18:08 | 51.16218 | -0.52774 | 19009 ft | 387 kts | 22° |
| 2026-05-04 18:08 | 51.18702 | -0.51149 | 19008 ft | 386 kts | 22° |
| 2026-05-04 18:08 | 51.21182 | -0.49525 | 18916 ft | 385 kts | 22° |
| 2026-05-04 18:09 | 51.26104 | -0.46299 | 18187 ft | 379 kts | 22° |
| 2026-05-04 18:09 | 51.30944 | -0.43128 | 17127 ft | 373 kts | 23° |
| 2026-05-04 18:10 | 51.33323 | -0.41569 | 16619 ft | 369 kts | 22° |
| 2026-05-04 18:10 | 51.35687 | -0.40014 | 16128 ft | 366 kts | 23° |
| 2026-05-04 18:10 | 51.38026 | -0.38471 | 15548 ft | 363 kts | 22° |
| 2026-05-04 18:10 | 51.40348 | -0.36944 | 15153 ft | 358 kts | 22° |
| 2026-05-04 18:11 | 51.42621 | -0.35448 | 15033 ft | 359 kts | 22° |
| 2026-05-04 18:11 | 51.44907 | -0.33794 | 15016 ft | 361 kts | 26° |
| 2026-05-04 18:11 | 51.47165 | -0.32059 | 15018 ft | 359 kts | 26° |
| 2026-05-04 18:11 | 51.49388 | -0.30357 | 15019 ft | 361 kts | 26° |
| 2026-05-04 18:12 | 51.51662 | -0.28623 | 15018 ft | 361 kts | 26° |
| 2026-05-04 18:12 | 51.53934 | -0.26893 | 15017 ft | 360 kts | 26° |
| 2026-05-04 18:12 | 51.56063 | -0.25261 | 15018 ft | 361 kts | 26° |
| 2026-05-04 18:12 | 51.58273 | -0.23568 | 15017 ft | 361 kts | 25° |
| 2026-05-04 18:13 | 51.59039 | -0.22984 | 15018 ft | 360 kts | 25° |
| 2026-05-04 18:13 | 51.62936 | -0.19986 | 14998 ft | 360 kts | 26° |
| 2026-05-04 18:14 | 51.65170 | -0.18255 | 14917 ft | 350 kts | 26° |
| 2026-05-04 18:14 | 51.67305 | -0.16604 | 14749 ft | 332 kts | 26° |
| 2026-05-04 18:14 | 51.69427 | -0.15497 | 14528 ft | 313 kts | 6° |
| 2026-05-04 18:15 | 51.73733 | -0.15275 | 13410 ft | 307 kts | 1° |
| 2026-05-04 18:15 | 51.77924 | -0.15147 | 12333 ft | 300 kts | 1° |
| 2026-05-04 18:15 | 51.80008 | -0.15070 | 11791 ft | 298 kts | 1° |
| 2026-05-04 18:16 | 51.82067 | -0.15070 | 11214 ft | 294 kts | 352° |
| 2026-05-04 18:16 | 51.83971 | -0.16122 | 10563 ft | 290 kts | 326° |
| 2026-05-04 18:16 | 51.85580 | -0.18084 | 10003 ft | 289 kts | 321° |
| 2026-05-04 18:17 | 51.88644 | -0.22071 | 8296 ft | 304 kts | 321° |
| 2026-05-04 18:17 | 51.90313 | -0.24279 | 7233 ft | 315 kts | 317° |
| 2026-05-04 18:17 | 51.92058 | -0.30544 | 6246 ft | 297 kts | 281° |
| 2026-05-04 18:18 | 51.92408 | -0.33681 | 6069 ft | 279 kts | 281° |
| 2026-05-04 18:18 | 51.92536 | -0.36704 | 5910 ft | 262 kts | 262° |
| 2026-05-04 18:18 | 51.92246 | -0.39528 | 5771 ft | 246 kts | 261° |
| 2026-05-04 18:18 | 51.91958 | -0.42191 | 5602 ft | 234 kts | 261° |
| 2026-05-04 18:19 | 51.91405 | -0.47198 | 5027 ft | 212 kts | 261° |
| 2026-05-04 18:19 | 51.91147 | -0.49424 | 5009 ft | 195 kts | 261° |
| 2026-05-04 18:19 | 51.90894 | -0.51637 | 5023 ft | 199 kts | 261° |
| 2026-05-04 18:20 | 51.90646 | -0.53795 | 5021 ft | 194 kts | 261° |
| 2026-05-04 18:20 | 51.90401 | -0.55926 | 5019 ft | 196 kts | 261° |
| 2026-05-04 18:20 | 51.90150 | -0.58092 | 5019 ft | 197 kts | 261° |
| 2026-05-04 18:20 | 51.89901 | -0.60261 | 5019 ft | 195 kts | 261° |
| 2026-05-04 18:21 | 51.89607 | -0.62408 | 5025 ft | 197 kts | 248° |
| 2026-05-04 18:21 | 51.88747 | -0.64083 | 4962 ft | 194 kts | 218° |
| 2026-05-04 18:21 | 51.87652 | -0.65353 | 4581 ft | 194 kts | 216° |
| 2026-05-04 18:21 | 51.86537 | -0.66624 | 4096 ft | 196 kts | 216° |
| 2026-05-04 18:22 | 51.85317 | -0.67519 | 3549 ft | 196 kts | 184° |
| 2026-05-04 18:22 | 51.84037 | -0.67021 | 3140 ft | 188 kts | 141° |
| 2026-05-04 18:22 | 51.83347 | -0.65390 | 3023 ft | 168 kts | 98° |
| 2026-05-04 18:22 | 51.83325 | -0.63561 | 3031 ft | 165 kts | 79° |
| 2026-05-04 18:23 | 51.83544 | -0.61760 | 3022 ft | 161 kts | 73° |
| 2026-05-04 18:23 | 51.83818 | -0.60004 | 3028 ft | 161 kts | 73° |
| 2026-05-04 18:23 | 51.84074 | -0.58255 | 3015 ft | 162 kts | 75° |
| 2026-05-04 18:23 | 51.84289 | -0.56477 | 2928 ft | 164 kts | 78° |
| 2026-05-04 18:24 | 51.84457 | -0.54686 | 2582 ft | 159 kts | 77° |
| 2026-05-04 18:24 | 51.84694 | -0.52953 | 2386 ft | 158 kts | 73° |
| 2026-05-04 18:24 | 51.84976 | -0.51231 | 2157 ft | 159 kts | 72° |
| 2026-05-04 18:24 | 51.85271 | -0.49521 | 1953 ft | 157 kts | 72° |
| 2026-05-04 18:25 | 51.85542 | -0.47942 | 1741 ft | 133 kts | 71° |
| 2026-05-04 18:25 | 51.85778 | -0.46584 | 1579 ft | 124 kts | 71° |
| 2026-05-04 18:25 | 51.86009 | -0.45254 | 1420 ft | 122 kts | 72° |
| 2026-05-04 18:25 | 51.86238 | -0.43937 | 1259 ft | 122 kts | 72° |
| 2026-05-04 18:26 | 51.86460 | -0.42637 | 1097 ft | 122 kts | 71° |
| 2026-05-04 18:26 | 51.86681 | -0.41321 | 929 ft | 122 kts | 72° |
| 2026-05-04 18:26 | 51.86915 | -0.40005 | 751 ft | 119 kts | 72° |
| 2026-05-04 18:26 | 51.87137 | -0.38713 | 611 ft | 122 kts | 72° |
| 2026-05-04 18:27 | 51.87361 | -0.37451 | 538 ft | 85 kts | 73° |
| 2026-05-04 18:27 | 51.87427 | -0.37095 | 538 ft | 0 kts | 73° |
| 2026-05-04 18:27 | 51.87471 | -0.36957 | 539 ft | 19 kts | 33° |
| 2026-05-04 18:27 | 51.87594 | -0.37008 | 534 ft | 22 kts | 300° |
| 2026-05-04 18:28 | 51.87596 | -0.37174 | 534 ft | 8 kts | 256° |
| 2026-05-04 18:28 | 51.87585 | -0.37247 | 534 ft | 0 kts | 256° |
| 2026-05-04 18:28 | 51.87584 | -0.37255 | 534 ft | 4 kts | 257° |
| 2026-05-04 18:28 | 51.87580 | -0.37356 | 535 ft | 12 kts | 279° |
| 2026-05-04 18:29 | 51.87636 | -0.37459 | 536 ft | 14 kts | 326° |
| 2026-05-04 18:29 | 51.87712 | -0.37594 | 534 ft | 18 kts | 298° |
| 2026-05-04 18:29 | 51.87765 | -0.37795 | 534 ft | 21 kts | 295° |
| 2026-05-04 18:29 | 51.87848 | -0.37993 | 534 ft | 20 kts | 326° |
| 2026-05-04 18:30 | 51.88039 | -0.37891 | 534 ft | 8 kts | 82° |
| 2026-05-04 18:30 | 51.88023 | -0.37838 | 534 ft | 2 kts | 127° |
| 2026-05-04 18:30 | 51.88020 | -0.37831 | 534 ft | 0 kts | 127° |